Sections

Recent Chat Log

Time Name Message
Jan 17, 2019 10:39:28 pm  Raphael Janifak t!r
Jan 17, 2019 10:36:59 pm  Raphael Janifak 1r
Jan 17, 2019 10:36:58 pm  Raphael Janifak 1r
Jan 17, 2019 10:36:56 pm  Raphael Janifak t!r
Jan 17, 2019 10:36:32 pm  Cr0Su no ac=olivb
Jan 17, 2019 10:35:47 pm  Patusiak Wariacik t!r
Jan 17, 2019 10:34:47 pm  Cr0Su h i
Jan 17, 2019 10:31:12 pm  Patusiak Wariacik t!@r
Jan 17, 2019 10:28:27 pm  MouziBiceps 1r
Jan 17, 2019 10:26:11 pm  Suigetsu^ -_-
Jan 17, 2019 10:25:54 pm  2040 Co to za strefy XD
Jan 17, 2019 10:25:47 pm  2040 woo
Jan 17, 2019 10:22:09 pm  2040 pa
Jan 17, 2019 10:21:53 pm  2040 z pre speedem startuj
Jan 17, 2019 10:21:39 pm  2040 ?!?!
Jan 17, 2019 10:19:59 pm  saint rtvb
Jan 17, 2019 10:19:24 pm  Raphael Janifak rtbv
Jan 17, 2019 10:18:52 pm  Raphael Janifak t!r
Jan 17, 2019 10:18:32 pm  :Nat1ve. restart
Jan 17, 2019 10:17:58 pm  Raphael Janifak t!r
Jan 17, 2019 10:10:37 pm  :Nat1ve. 4m
Jan 17, 2019 10:10:36 pm  :Nat1ve. good
Jan 17, 2019 10:10:12 pm  Raphael Janifak beskitu ez
Jan 17, 2019 10:09:52 pm  :Nat1ve. ez
Jan 17, 2019 10:05:26 pm  Raphael Janifak t!r
Jan 17, 2019 9:52:35 pm  I love minecraft <3 :* ™ how this part
Jan 17, 2019 9:52:27 pm  I love minecraft <3 :* ™ wtf
Jan 17, 2019 9:50:30 pm  I love minecraft <3 :* ™ go inferno
Jan 17, 2019 9:48:43 pm  Bones /RTV
Jan 17, 2019 9:48:37 pm  Bones .КЕМ
Jan 17, 2019 9:46:43 pm  cpt h4ck cut ?
Jan 17, 2019 9:46:36 pm  I love minecraft <3 :* ™ ű!r
Jan 17, 2019 9:45:27 pm  I love minecraft <3 :* ™ 6 more
Jan 17, 2019 9:45:26 pm  I love minecraft <3 :* ™ 5 more
Jan 17, 2019 9:45:11 pm  I love minecraft <3 :* ™ go rtv
Jan 17, 2019 9:45:09 pm  I love minecraft <3 :* ™ yes bro
Jan 17, 2019 9:45:03 pm  :Nat1ve. go rtv peapl, its ez maps
Jan 17, 2019 9:44:32 pm  I love minecraft <3 :* ™ go rtv please
Jan 17, 2019 9:44:29 pm  Suigetsu^ nc
Jan 17, 2019 9:41:29 pm  :Nat1ve. GG VAC has been detected a cheat in the server.
Jan 17, 2019 9:41:29 pm  saint skisles
Jan 17, 2019 9:41:05 pm  m420inek pewnie skrót jest xd
Jan 17, 2019 9:40:48 pm  I love minecraft <3 :* ™ nice olver
Jan 17, 2019 9:40:44 pm  I love minecraft <3 :* ™ WOAHHHH
Jan 17, 2019 9:40:42 pm  I love minecraft <3 :* ™ 15s
Jan 17, 2019 9:40:22 pm  I love minecraft <3 :* ™ nice
Jan 17, 2019 9:40:20 pm  I love minecraft <3 :* ™ 22s
Jan 17, 2019 9:39:38 pm  cpt h4ck ta
Jan 17, 2019 9:39:31 pm  :Nat1ve. short map
Jan 17, 2019 9:39:30 pm  m420inek ale na wszystkich zresetowali co nie
Jan 17, 2019 9:39:18 pm  cpt h4ck bo nowe mapy wgrali
Jan 17, 2019 9:38:51 pm  m420inek lol
Jan 17, 2019 9:38:49 pm  m420inek czemu był reset wyników
Jan 17, 2019 9:36:48 pm  saint dojebal
Jan 17, 2019 9:34:52 pm  I love minecraft <3 :* ™ go inferno
Jan 17, 2019 9:34:47 pm  I love minecraft <3 :* ™ gg
Jan 17, 2019 9:33:35 pm  m420inek kurwa ile ma ta mapa
Jan 17, 2019 9:32:38 pm  :Nat1ve. gg
Jan 17, 2019 9:27:49 pm  :Nat1ve. @rtv
Jan 17, 2019 9:23:50 pm  m420inek ktorej pewnie nawet jeszcze nie ruchał
Jan 17, 2019 9:23:45 pm  m420inek nie wiem kurwa jak ktokolwiek dojrzały moze czuc sie lepszy od kogos bo ma dziewczyne
Jan 17, 2019 9:22:55 pm  m420inek czyli jednak masz 14 lat
Jan 17, 2019 9:22:45 pm  m420inek ta jak masz jakiegos tam kaszalota to myslisz ze ci ktokolwiek zazdrosci
Jan 17, 2019 9:22:24 pm  ✪ That's hot ez
Jan 17, 2019 9:22:23 pm  ✪ That's hot ahah
Jan 17, 2019 9:22:21 pm  ✪ That's hot znjadz se dziewczyne to pogadamy przegrywie
Jan 17, 2019 9:21:45 pm  ✪ That's hot bo jestes za twepy na 20 latka
Jan 17, 2019 9:21:40 pm  m420inek no
Jan 17, 2019 9:21:36 pm  ✪ That's hot masz 12
Jan 17, 2019 9:21:34 pm  m420inek na ogol kasjerki oceniają na 15 i nic nie sprzedają
Jan 17, 2019 9:21:33 pm  ✪ That's hot no dobra
Jan 17, 2019 9:21:24 pm  m420inek asle jak myslisz ze mam 20 lat to dzieki
Jan 17, 2019 9:21:21 pm  ✪ That's hot wzrost
Jan 17, 2019 9:21:18 pm  m420inek ma do wyzywania przez internet
Jan 17, 2019 9:21:18 pm  ✪ That's hot chujowy argument
Jan 17, 2019 9:21:10 pm  ✪ That's hot co to ma do inteligencji
Jan 17, 2019 9:21:04 pm  ✪ That's hot 175 ?
Jan 17, 2019 9:21:01 pm  ✪ That's hot pozatym
Jan 17, 2019 9:20:57 pm  ✪ That's hot powiedzial typek 20 lat mieszka u matki i wali konia do hentai
Jan 17, 2019 9:20:41 pm  ✪ That's hot XDDDDDDDDDDDDDDDDDDDDDDDD
Jan 17, 2019 9:20:39 pm  m420inek wsypierdalaj
Jan 17, 2019 9:20:35 pm  m420inek dziekuje za opinie
Jan 17, 2019 9:20:32 pm  m420inek powiedział typical zjeb 24/7 cs i 175cm wzorstu
Jan 17, 2019 9:19:57 pm  ✪ That's hot jestes tepy
Jan 17, 2019 9:19:37 pm  m420inek zeby to przejsc
Jan 17, 2019 9:19:27 pm  ✪ That's hot czemu dzbany nie dacie rtv
Jan 17, 2019 9:07:09 pm  2040 RTV
Jan 17, 2019 9:05:32 pm  Suigetsu^ jebac te mape
Jan 17, 2019 9:05:28 pm  Suigetsu^ dawajcie rtv
Jan 17, 2019 9:05:25 pm  Suigetsu^ erv
Jan 17, 2019 9:05:14 pm  2040 Rrtv
Jan 17, 2019 9:04:09 pm  RupMiTak zajebista nuta
Jan 17, 2019 9:04:07 pm  saint xs
Jan 17, 2019 9:03:57 pm  2040 stfuj
Jan 17, 2019 9:03:55 pm  2040 xdDDDDDDDDDDDDD
Jan 17, 2019 9:02:58 pm  :Nat1ve. FUCKING MAP
Jan 17, 2019 9:02:54 pm  :Nat1ve. WTF
Jan 17, 2019 9:02:18 pm  RupMiTak nirvana nice\
Jan 17, 2019 9:01:53 pm  2040 \!r
Jan 17, 2019 9:01:38 pm  2040 ./;TYKLPGES
Jan 17, 2019 9:01:26 pm  DuckMuscles Besides !r
Jan 17, 2019 9:01:18 pm  DuckMuscles Does anyone know how to unstuck?
Jan 17, 2019 9:00:20 pm  2040 XD
Jan 17, 2019 8:55:42 pm  :Nat1ve. where off music?
Jan 17, 2019 8:55:25 pm  wojjniczek csgoatse.com only i can hear music
Jan 17, 2019 8:54:50 pm  :Nat1ve. wtf
Jan 17, 2019 8:35:32 pm  wróbel- zjebana mapa
Jan 17, 2019 8:34:01 pm  wróbel- sprzedawaj to
Jan 17, 2019 8:33:59 pm  wróbel- uuu
Jan 17, 2019 8:31:56 pm  Raphael Janifak ale polecialem
Jan 17, 2019 8:31:54 pm  Raphael Janifak ol szit
Jan 17, 2019 8:31:52 pm  cpt h4ck chujstwo
Jan 17, 2019 8:31:50 pm  cpt h4ck jebane kurwa
Jan 17, 2019 8:30:05 pm  Raphael Janifak t!r
Jan 17, 2019 8:28:49 pm  Raphael Janifak t!r
Jan 17, 2019 8:21:56 pm  Raphael Janifak 1r
Jan 17, 2019 8:20:38 pm  t0xic xd
Jan 17, 2019 8:20:36 pm  t0xic albo pooglądał skróty
Jan 17, 2019 8:20:23 pm  t0xic proste
Jan 17, 2019 8:20:17 pm  t0xic bot xd
Jan 17, 2019 8:20:09 pm  t0xic no 58 ziomek zajebał
Jan 17, 2019 8:19:48 pm  t0xic ładny bot
Jan 17, 2019 8:19:45 pm  t0xic o kurwa
Jan 17, 2019 8:19:00 pm  Raphael Janifak t!r
Jan 17, 2019 8:13:44 pm  t0xic xd
Jan 17, 2019 8:13:41 pm  t0xic chlopaki to sa w agencji towarzyskiej
Jan 17, 2019 8:13:14 pm  Lisek to jest kurwa serwer surf czy bh?
Jan 17, 2019 8:13:12 pm  t0xic jebac ta mape
Jan 17, 2019 8:13:05 pm  t0xic dokladnie
Jan 17, 2019 8:11:49 pm  Lisek no i tu 30 min :#
Jan 17, 2019 8:10:31 pm  t0xic kurwa
Jan 17, 2019 8:07:55 pm  Raphael Janifak jak sie wylacza ta pedalska muzyke
Jan 17, 2019 8:07:26 pm  cpt h4ck ....
Jan 17, 2019 8:05:02 pm  t0xic kurwy
Jan 17, 2019 7:59:29 pm  STORMY t/r
Jan 17, 2019 7:46:29 pm  Raphael Janifak w koncu
Jan 17, 2019 7:36:55 pm  Raphael Janifak rtc
Jan 17, 2019 7:25:24 pm  BAMBINOO podziwiam każdego kto przeszedł tę mapę
Jan 17, 2019 7:23:58 pm  t0xic o kurwa
Jan 17, 2019 7:20:03 pm  BAMBINOO BO MI ŻYŁKI PĘKAJĄ
Jan 17, 2019 7:19:49 pm  BAMBINOO KURWA RTV PLS
Jan 17, 2019 7:17:45 pm  Raphael Janifak xD
Jan 17, 2019 7:17:41 pm  Raphael Janifak ta mapa
Jan 17, 2019 7:17:39 pm  Raphael Janifak bosze
Jan 17, 2019 7:17:00 pm  Forable kotów
Jan 17, 2019 7:16:55 pm  Forable mapa dla najwiekszych ktow
Jan 17, 2019 7:15:30 pm  BAMBINOO RTV TO GÓWNO
Jan 17, 2019 7:14:22 pm  BAMBINOO RTV
Jan 17, 2019 7:06:54 pm  BAMBINOO RTV
Jan 17, 2019 7:03:39 pm  1 csgoatse.com 4r8nfcgtvzffetcuvsfjzsdxdfczd
Jan 17, 2019 6:55:21 pm  BAMBINOO RTV
Jan 17, 2019 6:53:48 pm  Raphael Janifak this command
Jan 17, 2019 6:53:44 pm  Raphael Janifak ./jak_to_jest_być_skrybą_?
Jan 17, 2019 6:52:55 pm  No? how turn nightvision ?
Jan 17, 2019 6:48:57 pm  BAMBINOO RTV
Jan 17, 2019 6:46:54 pm  BAMBINOO RTV PLS
Jan 17, 2019 6:38:46 pm  эйрооо что за я зык
Jan 17, 2019 6:37:59 pm  BAMBINOO RTV
Jan 17, 2019 6:37:53 pm  эйрооо малой заеби и бало
Jan 17, 2019 6:37:33 pm  эйрооо уйди
Jan 17, 2019 6:36:33 pm  Amoin. HentaiHaven rip.. :c SinBad Spec me for while
Jan 17, 2019 6:35:30 pm  Amoin. HentaiHaven rip.. :c For me
Jan 17, 2019 6:35:29 pm  Amoin. HentaiHaven rip.. :c Sindbad cuz it's better than reality
Jan 17, 2019 6:33:19 pm  Amoin. HentaiHaven rip.. :c Oh im bad
Jan 17, 2019 6:32:10 pm  BAMBINOO RTV
Jan 17, 2019 6:31:48 pm  Amoin. HentaiHaven rip.. :c XD
Jan 17, 2019 6:31:04 pm  Amoin. HentaiHaven rip.. :c bye
Jan 17, 2019 6:30:52 pm  Amoin. HentaiHaven rip.. :c Oh my god he's like 9 y.o.
Jan 17, 2019 6:30:16 pm  Amoin. HentaiHaven rip.. :c Wat da fucc
Jan 17, 2019 6:30:12 pm  Amoin. HentaiHaven rip.. :c XDDDDDDDDDDDD
Jan 17, 2019 6:30:04 pm  Amoin. HentaiHaven rip.. :c But
Jan 17, 2019 6:30:01 pm  Amoin. HentaiHaven rip.. :c bruh
Jan 17, 2019 6:29:59 pm  Amoin. HentaiHaven rip.. :c Bud ur fucking kiddo
Jan 17, 2019 6:29:53 pm  Amoin. HentaiHaven rip.. :c Ur naruto..
Jan 17, 2019 6:29:42 pm  Amoin. HentaiHaven rip.. :c NICE
Jan 17, 2019 6:29:21 pm  Payd RTV
Jan 17, 2019 6:28:45 pm  Amoin. HentaiHaven rip.. :c Everyone rtv
Jan 17, 2019 6:28:25 pm  Sindbad rtb
Jan 17, 2019 6:27:44 pm  Amoin. HentaiHaven rip.. :c rip speed Payd
Jan 17, 2019 6:24:06 pm  Amoin. HentaiHaven rip.. :c xd
Jan 17, 2019 6:24:03 pm  Payd XD
Jan 17, 2019 6:23:52 pm  1 csgoatse.com xDDD
Jan 17, 2019 6:23:47 pm  Amoin. HentaiHaven rip.. :c start is imbossible
Jan 17, 2019 6:20:47 pm  Sindbad hy
Jan 17, 2019 6:20:21 pm  Payd KURWAAAAAAAAAAA
Jan 17, 2019 6:20:07 pm  Payd why????????
Jan 17, 2019 6:19:22 pm  Payd 1r
Jan 17, 2019 6:17:38 pm  👑Skully👑 myszke
Jan 17, 2019 6:17:35 pm  👑Skully👑 myszek
Jan 17, 2019 6:17:32 pm  👑Skully👑 muszke
Jan 17, 2019 6:17:29 pm  👑Skully👑 podepnik juszke
Jan 17, 2019 6:17:28 pm  Payd 1R
Jan 17, 2019 6:17:19 pm  FUCK LOVE nie moge ruszać celownikiem, co jest?
Jan 17, 2019 6:16:40 pm  Payd 1rt
Jan 17, 2019 6:16:40 pm  Payd 1Er
Jan 17, 2019 6:15:31 pm  Payd t1R
Jan 17, 2019 6:13:26 pm  👑Skully👑 the easies map ever go change it
Jan 17, 2019 6:05:51 pm  Payd what does LG before my nick means?
Jan 17, 2019 6:04:36 pm  Payd gg
Jan 17, 2019 6:04:03 pm  Дмитрий не остана JD KURWE

Admin Options: